Time;durP1;ratioP1;P1;durP2;ratioP2;P2;SDS_P1;SDS_P2;PMS_P1;PMS_P2;Temp;Humidity;BMP_temperature;BMP_pressure;BME280_temperature;BME280_humidity;BME280_pressure;Samples;Min_cycle;Max_cycle;Signal;HPM_P1;HPM_P2
2022/10/02 00:00:19;;;;;;;5.40;0.82;;;;;19.30;101161.00;;;;5006295;28;20229;-79
2022/10/02 00:02:52;;;;;;;1.90;0.40;;;;;19.30;101163.00;;;;5006823;28;20196;-79
2022/10/02 00:05:24;;;;;;;2.65;0.93;;;;;19.20;101167.00;;;;5013206;28;20197;-79
2022/10/02 00:07:58;;;;;;;3.95;0.75;;;;;19.30;101170.00;;;;5011813;28;20682;-79
2022/10/02 00:10:30;;;;;;;0.73;0.45;;;;;19.20;101183.00;;;;5004094;28;20228;-79
2022/10/02 00:13:01;;;;;;;3.00;0.43;;;;;19.20;101180.00;;;;5009698;28;20213;-80
2022/10/02 00:15:31;;;;;;;1.40;0.30;;;;;19.20;101183.00;;;;5010281;28;20201;-80
2022/10/02 00:18:02;;;;;;;3.53;0.38;;;;;19.20;101187.00;;;;5009946;28;20204;-79
2022/10/02 00:20:39;;;;;;;1.33;0.35;;;;;19.10;101189.00;;;;5008824;28;20198;-79
2022/10/02 00:23:11;;;;;;;4.63;0.77;;;;;19.10;101191.00;;;;4990689;28;20201;-80
2022/10/02 00:25:46;;;;;;;2.50;0.55;;;;;19.10;101193.00;;;;4999597;28;20201;-80
2022/10/02 00:28:22;;;;;;;1.20;0.30;;;;;19.00;101190.00;;;;5010112;28;20204;-79
2022/10/02 00:31:15;;;;;;;2.50;0.40;;;;;19.00;101200.00;;;;5008259;28;20211;-79
2022/10/02 00:33:57;;;;;;;1.90;0.40;;;;;18.90;101192.00;;;;5010837;28;20201;-79
2022/10/02 00:36:39;;;;;;;3.88;0.43;;;;;18.90;101211.00;;;;4991561;28;20189;-79
2022/10/02 00:39:18;;;;;;;0.60;0.32;;;;;18.90;101202.00;;;;5006070;28;20232;-79
2022/10/02 00:42:25;;;;;;;3.10;0.50;;;;;18.90;101201.00;;;;5005771;28;20200;-80
2022/10/02 00:45:14;;;;;;;0.98;0.47;;;;;18.90;101206.00;;;;5009045;28;20205;-79
2022/10/02 00:47:49;;;;;;;2.92;0.52;;;;;18.90;101210.00;;;;5005214;28;20200;-79
2022/10/02 00:50:30;;;;;;;2.55;0.60;;;;;18.80;101214.00;;;;5010487;28;20216;-79
2022/10/02 00:53:14;;;;;;;4.15;0.50;;;;;18.80;101210.00;;;;5008964;28;20201;-79
2022/10/02 00:55:52;;;;;;;3.03;0.82;;;;;18.80;101214.00;;;;5009630;28;20204;-80
2022/10/02 00:58:49;;;;;;;3.33;0.70;;;;;18.80;101215.00;;;;5007745;28;20232;-79
2022/10/02 01:01:22;;;;;;;2.40;0.70;;;;;18.90;101212.00;;;;4979937;28;20193;-80
2022/10/02 01:03:55;;;;;;;2.50;0.68;;;;;18.90;101203.00;;;;5009052;28;20196;-79
2022/10/02 01:06:27;;;;;;;1.77;0.68;;;;;18.90;101207.00;;;;5008733;28;20201;-79
2022/10/02 01:08:56;;;;;;;3.97;1.33;;;;;18.90;101216.00;;;;5006411;28;20215;-79
2022/10/02 01:11:25;;;;;;;1.92;0.80;;;;;18.90;101207.00;;;;5006370;28;20225;-79
2022/10/02 01:13:53;;;;;;;1.70;0.60;;;;;18.90;101206.00;;;;5008916;28;20271;-79
2022/10/02 01:16:20;;;;;;;2.88;0.75;;;;;18.90;101208.00;;;;5017172;28;20658;-80
2022/10/02 01:18:48;;;;;;;2.33;0.75;;;;;19.00;101204.00;;;;5006002;28;20231;-79
2022/10/02 01:21:21;;;;;;;3.13;0.98;;;;;18.90;101209.00;;;;5004151;28;20566;-79
2022/10/02 01:23:58;;;;;;;2.50;0.80;;;;;18.90;101211.00;;;;5008689;28;20203;-79
2022/10/02 01:26:27;;;;;;;5.75;1.55;;;;;19.00;101214.00;;;;5008760;28;20208;-79
2022/10/02 01:28:55;;;;;;;2.13;0.90;;;;;19.00;101213.00;;;;5008964;28;20718;-79
2022/10/02 01:31:23;;;;;;;2.97;0.80;;;;;19.00;101211.00;;;;5007243;28;20197;-79
2022/10/02 01:33:51;;;;;;;3.05;0.70;;;;;19.00;101208.00;;;;5006044;28;20670;-79
2022/10/02 01:36:21;;;;;;;3.67;1.02;;;;;19.00;101209.00;;;;5008274;28;20773;-80
2022/10/02 01:38:51;;;;;;;2.65;0.98;;;;;19.00;101210.00;;;;5012309;28;20231;-79
2022/10/02 01:41:19;;;;;;;4.60;1.27;;;;;19.00;101210.00;;;;5006229;28;20197;-79
2022/10/02 01:43:51;;;;;;;3.40;0.65;;;;;19.00;101213.00;;;;5007080;28;20207;-79
2022/10/02 01:46:32;;;;;;;2.15;1.08;;;;;19.00;101210.00;;;;5008344;28;20201;-79
2022/10/02 01:49:11;;;;;;;2.00;1.10;;;;;19.00;101217.00;;;;5006996;28;20208;-79
2022/10/02 01:52:04;;;;;;;3.03;0.75;;;;;19.00;101218.00;;;;5005581;28;20659;-79
2022/10/02 01:54:45;;;;;;;4.63;0.93;;;;;19.00;101225.00;;;;5007949;28;20204;-79
2022/10/02 01:57:23;;;;;;;3.42;1.02;;;;;19.00;101219.00;;;;5007481;28;20235;-79
2022/10/02 02:00:06;;;;;;;6.55;1.60;;;;;19.00;101220.00;;;;5005625;28;20248;-79
2022/10/02 02:02:42;;;;;;;4.30;2.15;;;;;19.00;101218.00;;;;5006839;28;20283;-79
2022/10/02 02:05:17;;;;;;;5.43;1.55;;;;;19.10;101213.00;;;;4996095;28;20718;-79
2022/10/02 02:07:49;;;;;;;6.45;1.20;;;;;19.10;101212.00;;;;5006643;28;20201;-79
2022/10/02 02:10:25;;;;;;;4.57;1.48;;;;;19.00;101218.00;;;;5005851;28;20224;-79
2022/10/02 02:13:01;;;;;;;4.32;1.50;;;;;19.00;101222.00;;;;5007058;28;20670;-79
2022/10/02 02:15:39;;;;;;;7.38;2.08;;;;;19.00;101227.00;;;;5008691;28;20207;-79
2022/10/02 02:18:14;;;;;;;5.57;1.55;;;;;19.10;101226.00;;;;5007360;28;20655;-79
2022/10/02 02:20:47;;;;;;;3.88;0.98;;;;;19.10;101223.00;;;;5005711;28;20224;-80
2022/10/02 02:23:18;;;;;;;5.47;1.65;;;;;19.10;101226.00;;;;5006386;28;20212;-80
2022/10/02 02:25:50;;;;;;;4.47;1.80;;;;;19.10;101224.00;;;;5000651;28;20694;-80
2022/10/02 02:28:20;;;;;;;8.10;1.83;;;;;19.10;101228.00;;;;5006849;28;20204;-79
2022/10/02 02:30:54;;;;;;;5.70;1.52;;;;;19.10;101232.00;;;;5004196;28;22281;-79
2022/10/02 02:33:27;;;;;;;10.13;1.15;;;;;19.10;101233.00;;;;5014678;28;20214;-80
2022/10/02 02:36:00;;;;;;;5.88;1.17;;;;;19.20;101224.00;;;;5008288;28;20196;-79
2022/10/02 02:38:31;;;;;;;6.35;1.52;;;;;19.20;101227.00;;;;5007289;28;20578;-79
2022/10/02 02:41:05;;;;;;;4.45;1.52;;;;;19.20;101228.00;;;;5005102;28;20208;-79
2022/10/02 02:43:35;;;;;;;6.15;1.20;;;;;19.20;101226.00;;;;5006474;28;20208;-81
2022/10/02 02:46:07;;;;;;;3.90;1.10;;;;;19.20;101230.00;;;;5008062;28;20800;-79
2022/10/02 02:48:39;;;;;;;6.88;1.58;;;;;19.20;101222.00;;;;5008370;28;20207;-79
2022/10/02 02:51:13;;;;;;;4.85;1.40;;;;;19.20;101225.00;;;;5008223;28;20201;-79
2022/10/02 02:53:44;;;;;;;5.65;1.13;;;;;19.20;101227.00;;;;5007347;28;20231;-79
2022/10/02 02:56:16;;;;;;;6.15;1.70;;;;;19.20;101230.00;;;;5007551;28;20545;-80
2022/10/02 02:58:47;;;;;;;5.05;1.25;;;;;19.20;101225.00;;;;5003409;28;20205;-80
2022/10/02 03:01:16;;;;;;;6.88;1.00;;;;;19.30;101229.00;;;;5008049;28;20193;-80
2022/10/02 03:03:43;;;;;;;6.22;1.85;;;;;19.30;101228.00;;;;5007431;28;20201;-80
2022/10/02 03:06:32;;;;;;;3.55;1.15;;;;;19.20;101223.00;;;;5006712;28;20686;-79
2022/10/02 03:09:00;;;;;;;5.85;1.52;;;;;19.30;101223.00;;;;5008234;28;20193;-80
2022/10/02 03:11:41;;;;;;;5.50;1.25;;;;;19.20;101218.00;;;;5006548;28;20213;-80
2022/10/02 03:14:23;;;;;;;4.25;0.90;;;;;19.20;101224.00;;;;4988426;28;20621;-79
2022/10/02 03:17:00;;;;;;;2.88;0.77;;;;;19.20;101227.00;;;;5007563;28;20201;-79
2022/10/02 03:19:40;;;;;;;4.60;1.20;;;;;19.20;101220.00;;;;5008010;28;20224;-79
2022/10/02 03:22:14;;;;;;;6.20;1.05;;;;;19.20;101224.00;;;;5008042;28;20244;-79
2022/10/02 03:24:48;;;;;;;4.55;1.63;;;;;19.20;101222.00;;;;4988711;28;20201;-80
2022/10/02 03:27:23;;;;;;;5.05;0.75;;;;;19.20;101226.00;;;;5002812;28;20198;-80
2022/10/02 03:29:56;;;;;;;5.15;1.52;;;;;19.20;101228.00;;;;5008480;28;20197;-80
2022/10/02 03:32:26;;;;;;;4.28;1.00;;;;;19.20;101237.00;;;;5003905;28;20209;-79
2022/10/02 03:34:55;;;;;;;3.30;1.00;;;;;19.20;101238.00;;;;5007036;28;20220;-79
2022/10/02 03:37:23;;;;;;;3.88;0.80;;;;;19.20;101244.00;;;;5008499;28;20216;-80
2022/10/02 03:39:51;;;;;;;5.70;1.35;;;;;19.20;101242.00;;;;5006385;28;20316;-79
2022/10/02 03:42:24;;;;;;;4.68;0.82;;;;;19.20;101246.00;;;;5015337;28;20194;-80
2022/10/02 03:44:51;;;;;;;5.03;1.10;;;;;19.20;101249.00;;;;5013464;28;20205;-79
2022/10/02 03:47:19;;;;;;;5.43;1.30;;;;;19.20;101245.00;;;;5011550;28;20201;-79
2022/10/02 03:49:47;;;;;;;5.50;1.25;;;;;19.20;101250.00;;;;4997409;28;20213;-80
2022/10/02 03:52:17;;;;;;;6.72;1.63;;;;;19.20;101247.00;;;;4991213;28;20205;-79
2022/10/02 03:54:44;;;;;;;4.93;1.50;;;;;19.20;101257.00;;;;4996278;28;20204;-80
2022/10/02 03:57:19;;;;;;;6.03;1.25;;;;;19.20;101250.00;;;;5009397;28;20208;-79
2022/10/02 03:59:53;;;;;;;6.10;1.30;;;;;19.20;101252.00;;;;5000720;28;20250;-80
2022/10/02 04:02:29;;;;;;;8.85;1.73;;;;;19.10;101253.00;;;;5018498;28;20201;-79
2022/10/02 04:05:05;;;;;;;4.22;1.20;;;;;19.10;101259.00;;;;5011139;28;20189;-79
2022/10/02 04:07:37;;;;;;;5.57;1.33;;;;;19.10;101260.00;;;;4995352;28;20196;-80
2022/10/02 04:10:29;;;;;;;7.85;1.35;;;;;19.00;101261.00;;;;5010609;28;20217;-79
2022/10/02 04:13:04;;;;;;;2.67;0.82;;;;;19.10;101262.00;;;;5009895;28;20207;-80
2022/10/02 04:15:38;;;;;;;5.45;1.55;;;;;19.10;101262.00;;;;5008505;28;20203;-79
2022/10/02 04:18:15;;;;;;;6.47;1.23;;;;;19.10;101263.00;;;;5010875;28;20586;-80
2022/10/02 04:20:47;;;;;;;5.88;0.90;;;;;19.10;101260.00;;;;5007997;28;20690;-80
2022/10/02 04:23:21;;;;;;;5.65;1.50;;;;;19.10;101254.00;;;;5008722;28;20227;-79
2022/10/02 04:25:52;;;;;;;4.82;1.17;;;;;19.10;101258.00;;;;5010278;28;20196;-80
2022/10/02 04:28:24;;;;;;;6.50;1.23;;;;;19.10;101252.00;;;;5010512;28;20204;-80
2022/10/02 04:30:53;;;;;;;4.95;1.05;;;;;19.10;101251.00;;;;5015798;28;20275;-80
2022/10/02 04:33:22;;;;;;;3.47;0.82;;;;;19.10;101261.00;;;;5009235;28;21014;-80
2022/10/02 04:36:03;;;;;;;5.70;1.60;;;;;19.10;101256.00;;;;5011107;28;20204;-80
2022/10/02 04:38:56;;;;;;;4.88;1.55;;;;;19.10;101268.00;;;;5009526;28;20205;-80
2022/10/02 04:41:51;;;;;;;3.70;0.93;;;;;19.00;101269.00;;;;4990440;28;20216;-80
2022/10/02 04:44:34;;;;;;;3.97;1.00;;;;;19.00;101269.00;;;;5007199;28;20212;-80
2022/10/02 04:47:25;;;;;;;3.15;0.90;;;;;19.00;101281.00;;;;5010043;28;20200;-80
2022/10/02 04:50:22;;;;;;;2.92;0.70;;;;;19.00;101274.00;;;;5010218;28;20201;-79
2022/10/02 04:53:10;;;;;;;3.65;0.88;;;;;19.00;101275.00;;;;5008415;28;20201;-79
2022/10/02 04:55:53;;;;;;;2.40;0.70;;;;;19.00;101290.00;;;;5008636;28;20201;-79
2022/10/02 04:58:33;;;;;;;4.78;0.80;;;;;18.90;101285.00;;;;5003712;28;20693;-80
2022/10/02 05:01:10;;;;;;;7.35;0.95;;;;;19.00;101292.00;;;;5008368;28;20269;-79
2022/10/02 05:03:53;;;;;;;3.80;1.17;;;;;18.90;101286.00;;;;5009127;28;20188;-80
2022/10/02 05:06:36;;;;;;;2.33;0.95;;;;;18.90;101285.00;;;;5009412;28;20212;-80
2022/10/02 05:09:16;;;;;;;6.03;1.45;;;;;18.90;101294.00;;;;5005833;28;20277;-80
2022/10/02 05:12:06;;;;;;;2.88;0.63;;;;;18.80;101292.00;;;;5005370;28;20223;-80
2022/10/02 05:15:09;;;;;;;4.75;0.88;;;;;18.70;101294.00;;;;4959856;28;20202;-80
2022/10/02 05:17:50;;;;;;;2.38;0.98;;;;;18.80;101291.00;;;;5006840;28;20205;-80
2022/10/02 05:20:33;;;;;;;3.28;1.15;;;;;18.70;101304.00;;;;5008259;28;20228;-81
2022/10/02 05:23:22;;;;;;;3.42;0.60;;;;;18.70;101320.00;;;;5006535;28;20201;-81
2022/10/02 05:26:30;;;;;;;2.70;1.23;;;;;18.60;101328.00;;;;5006761;28;20212;-81
2022/10/02 05:29:17;;;;;;;3.13;0.57;;;;;18.60;101336.00;;;;5003866;28;20196;-81
2022/10/02 05:31:59;;;;;;;2.53;1.17;;;;;18.60;101336.00;;;;4995766;28;20212;-80
2022/10/02 05:34:44;;;;;;;4.30;1.25;;;;;18.60;101333.00;;;;5007657;28;20966;-81
2022/10/02 05:37:24;;;;;;;3.58;1.13;;;;;18.70;101329.00;;;;5008143;28;20211;-81
2022/10/02 05:40:00;;;;;;;6.20;1.00;;;;;18.70;101332.00;;;;5008715;28;20599;-81
2022/10/02 05:42:34;;;;;;;5.30;0.93;;;;;18.70;101339.00;;;;5007581;28;20204;-81
2022/10/02 05:45:03;;;;;;;4.60;1.05;;;;;18.70;101355.00;;;;4993636;28;20361;-81
2022/10/02 05:47:35;;;;;;;7.95;1.67;;;;;18.70;101347.00;;;;5006729;28;20205;-81
2022/10/02 05:50:14;;;;;;;5.95;1.45;;;;;18.70;101342.00;;;;5008928;28;20594;-81
2022/10/02 05:52:46;;;;;;;5.53;1.05;;;;;18.70;101342.00;;;;5011669;28;20582;-82
2022/10/02 05:55:23;;;;;;;3.35;1.30;;;;;18.70;101364.00;;;;5021308;28;20211;-81
2022/10/02 05:57:55;;;;;;;5.93;1.40;;;;;18.70;101358.00;;;;4997123;28;20676;-81
2022/10/02 06:00:30;;;;;;;4.65;1.30;;;;;18.80;101360.00;;;;5009296;28;20236;-82
2022/10/02 06:03:08;;;;;;;2.88;1.00;;;;;18.70;101348.00;;;;5006908;28;20661;-81
2022/10/02 06:05:43;;;;;;;6.43;1.15;;;;;18.80;101338.00;;;;5002945;28;20193;-81
2022/10/02 06:08:14;;;;;;;5.38;1.50;;;;;18.80;101342.00;;;;5009393;28;20642;-82
2022/10/02 06:10:46;;;;;;;2.92;1.10;;;;;18.80;101351.00;;;;5006311;28;20647;-80
2022/10/02 06:13:22;;;;;;;2.28;1.00;;;;;18.80;101350.00;;;;5003251;28;20690;-80
2022/10/02 06:15:53;;;;;;;7.15;1.30;;;;;18.80;101351.00;;;;5002864;28;20203;-80
2022/10/02 06:18:23;;;;;;;2.42;1.00;;;;;18.80;101347.00;;;;5000192;28;20209;-80
2022/10/02 06:20:54;;;;;;;4.97;1.00;;;;;18.90;101349.00;;;;5011472;28;20252;-80
2022/10/02 06:23:25;;;;;;;3.15;1.70;;;;;18.90;101360.00;;;;5008752;28;20255;-80
2022/10/02 06:25:55;;;;;;;5.28;1.10;;;;;18.90;101357.00;;;;5008470;28;20204;-80
2022/10/02 06:28:29;;;;;;;3.78;1.67;;;;;18.90;101361.00;;;;5008089;28;20208;-80
2022/10/02 06:31:03;;;;;;;3.05;1.25;;;;;18.90;101362.00;;;;5007356;28;20701;-79
2022/10/02 06:33:32;;;;;;;4.28;1.00;;;;;18.90;101364.00;;;;5012938;28;20585;-79
2022/10/02 06:36:20;;;;;;;4.45;0.88;;;;;18.90;101369.00;;;;5007539;28;20205;-79
2022/10/02 06:39:06;;;;;;;4.57;1.33;;;;;18.90;101370.00;;;;4993605;28;20590;-79
2022/10/02 06:41:40;;;;;;;5.35;1.25;;;;;18.90;101358.00;;;;5000685;28;20423;-80
2022/10/02 06:44:17;;;;;;;4.00;0.82;;;;;18.90;101372.00;;;;5007690;28;20200;-79
2022/10/02 06:47:00;;;;;;;3.90;0.88;;;;;19.00;101382.00;;;;5018258;28;20679;-79
2022/10/02 06:49:40;;;;;;;4.35;1.05;;;;;19.00;101384.00;;;;5022556;28;20200;-79
2022/10/02 06:52:20;;;;;;;1.88;0.75;;;;;19.00;101377.00;;;;5007643;28;20219;-79
2022/10/02 06:55:07;;;;;;;4.75;1.08;;;;;19.00;101397.00;;;;5016748;28;20192;-79
2022/10/02 06:57:49;;;;;;;3.47;1.13;;;;;19.00;101400.00;;;;5007337;28;20559;-80
2022/10/02 07:00:21;;;;;;;6.65;1.20;;;;;19.10;101405.00;;;;5000373;28;20231;-80
2022/10/02 07:03:26;;;;;;;5.82;1.73;;;;;19.00;101404.00;;;;5007697;28;20227;-80
2022/10/02 07:06:11;;;;;;;3.17;0.93;;;;;19.20;101407.00;;;;4929472;29;20291;-80
2022/10/02 07:08:54;;;;;;;5.60;0.88;;;;;19.20;101408.00;;;;5014521;28;20199;-80
2022/10/02 07:11:27;;;;;;;7.40;1.10;;;;;19.30;101417.00;;;;5003374;28;20217;-80
2022/10/02 07:14:08;;;;;;;4.47;0.88;;;;;19.30;101413.00;;;;5006336;28;20291;-81
2022/10/02 07:17:17;;;;;;;3.88;0.77;;;;;19.30;101413.00;;;;5008103;28;20683;-80
2022/10/02 07:20:18;;;;;;;3.28;0.98;;;;;19.30;101420.00;;;;4999165;28;20625;-80
2022/10/02 07:23:00;;;;;;;5.35;1.15;;;;;19.40;101420.00;;;;5007337;28;20196;-80
2022/10/02 07:25:42;;;;;;;4.75;0.80;;;;;19.50;101429.00;;;;5011138;28;20671;-80
2022/10/02 07:28:19;;;;;;;3.00;0.93;;;;;19.60;101427.00;;;;5009965;28;20193;-80
2022/10/02 07:30:56;;;;;;;3.03;1.33;;;;;19.60;101425.00;;;;5008270;28;20193;-80
2022/10/02 07:33:36;;;;;;;5.68;1.20;;;;;19.60;101429.00;;;;5010341;28;20205;-79
2022/10/02 07:36:11;;;;;;;2.80;0.85;;;;;19.70;101442.00;;;;5010665;28;20205;-79
2022/10/02 07:39:07;;;;;;;4.38;1.13;;;;;19.70;101451.00;;;;5009028;28;20204;-79
2022/10/02 07:42:08;;;;;;;5.70;1.02;;;;;19.70;101449.00;;;;5009039;28;20240;-79
2022/10/02 07:44:56;;;;;;;2.53;0.90;;;;;19.80;101448.00;;;;4984774;28;20205;-79
2022/10/02 07:47:42;;;;;;;5.05;0.90;;;;;19.90;101458.00;;;;5006203;28;20193;-78
2022/10/02 07:50:14;;;;;;;3.47;1.00;;;;;20.00;101454.00;;;;5004283;28;20193;-78
2022/10/02 07:52:54;;;;;;;1.85;0.55;;;;;20.00;101461.00;;;;5009007;28;20189;-79
2022/10/02 07:55:22;;;;;;;3.25;0.98;;;;;20.10;101461.00;;;;5007045;28;20659;-79
2022/10/02 07:58:00;;;;;;;3.83;0.82;;;;;20.10;101456.00;;;;5008009;28;20203;-79
2022/10/02 08:00:30;;;;;;;3.60;0.95;;;;;20.20;101457.00;;;;5008684;28;20239;-80
2022/10/02 08:03:01;;;;;;;2.08;0.60;;;;;20.30;101458.00;;;;5008684;28;20193;-79
2022/10/02 08:05:33;;;;;;;2.95;0.57;;;;;20.30;101468.00;;;;5009513;28;20324;-80
2022/10/02 08:08:04;;;;;;;3.80;1.17;;;;;20.40;101460.00;;;;5008818;28;20574;-79
2022/10/02 08:10:37;;;;;;;5.97;0.73;;;;;20.50;101462.00;;;;5013808;28;20221;-79
2022/10/02 08:13:13;;;;;;;5.28;1.02;;;;;20.50;101475.00;;;;4996444;28;20260;-80
2022/10/02 08:15:44;;;;;;;3.13;0.88;;;;;20.60;101480.00;;;;5003498;28;20745;-79
2022/10/02 08:18:18;;;;;;;4.55;1.05;;;;;20.60;101484.00;;;;5006023;28;20201;-79
2022/10/02 08:20:48;;;;;;;5.35;0.90;;;;;20.70;101478.00;;;;5006404;28;20220;-79
2022/10/02 08:23:22;;;;;;;3.38;0.95;;;;;20.70;101490.00;;;;5012811;28;20209;-79
2022/10/02 08:25:56;;;;;;;3.63;0.70;;;;;20.80;101491.00;;;;5007958;28;20669;-79
2022/10/02 08:28:29;;;;;;;3.05;0.82;;;;;20.90;101492.00;;;;5004024;28;20192;-80
2022/10/02 08:30:57;;;;;;;4.22;1.00;;;;;20.90;101488.00;;;;5011375;28;20785;-80
2022/10/02 08:33:25;;;;;;;3.47;0.70;;;;;21.00;101496.00;;;;5007387;28;20262;-80
2022/10/02 08:36:25;;;;;;;6.13;1.08;;;;;20.90;101497.00;;;;5009939;28;20287;-80
2022/10/02 08:39:05;;;;;;;3.05;1.02;;;;;21.00;101502.00;;;;5005263;28;20204;-80
2022/10/02 08:42:03;;;;;;;5.53;1.17;;;;;21.00;101509.00;;;;5026586;28;20227;-80
2022/10/02 08:45:00;;;;;;;4.75;1.15;;;;;21.10;101514.00;;;;4993793;28;20641;-81
2022/10/02 08:48:00;;;;;;;4.32;0.82;;;;;21.10;101522.00;;;;5012365;28;20666;-81
2022/10/02 08:50:56;;;;;;;7.82;1.50;;;;;21.20;101526.00;;;;5002906;28;20196;-80
2022/10/02 08:54:00;;;;;;;5.82;0.75;;;;;21.20;101529.00;;;;5013147;28;20655;-80
2022/10/02 08:56:39;;;;;;;5.25;0.80;;;;;21.30;101527.00;;;;5016359;28;20211;-81
2022/10/02 08:59:40;;;;;;;3.28;0.93;;;;;21.40;101530.00;;;;5008144;28;20567;-81
2022/10/02 09:02:53;;;;;;;6.20;1.00;;;;;21.40;101534.00;;;;5006059;28;20223;-80
2022/10/02 09:06:04;;;;;;;4.57;1.05;;;;;21.50;101541.00;;;;5016524;28;20204;-81
2022/10/02 09:09:07;;;;;;;7.35;1.05;;;;;21.60;101537.00;;;;5007658;28;20658;-80
2022/10/02 09:12:12;;;;;;;5.88;1.52;;;;;21.70;101541.00;;;;4991705;28;20220;-80
2022/10/02 09:14:53;;;;;;;4.45;0.85;;;;;21.70;101538.00;;;;5005943;28;20211;-81
2022/10/02 09:17:43;;;;;;;3.75;1.10;;;;;21.70;101540.00;;;;5008692;28;20215;-82
2022/10/02 09:20:40;;;;;;;4.78;0.98;;;;;21.80;101539.00;;;;5011929;28;20196;-82
2022/10/02 09:23:46;;;;;;;5.60;1.30;;;;;21.90;101545.00;;;;5022524;28;20200;-82
2022/10/02 09:26:24;;;;;;;4.32;0.60;;;;;22.00;101546.00;;;;5016646;28;22251;-81
2022/10/02 09:29:27;;;;;;;6.82;0.98;;;;;22.10;101546.00;;;;5018596;28;20213;-80
2022/10/02 09:32:26;;;;;;;3.97;0.80;;;;;22.10;101552.00;;;;4989221;28;20654;-82
2022/10/02 09:35:29;;;;;;;6.75;1.00;;;;;22.20;101555.00;;;;5000864;28;20208;-83
2022/10/02 09:38:28;;;;;;;4.35;1.25;;;;;22.20;101556.00;;;;4993610;28;20201;-82
2022/10/02 09:41:45;;;;;;;8.40;1.60;;;;;22.30;101562.00;;;;5006382;28;20197;-80
2022/10/02 09:45:06;;;;;;;5.13;1.08;;;;;22.30;101572.00;;;;4919298;29;20215;-81
2022/10/02 09:48:23;;;;;;;4.78;1.10;;;;;22.40;101560.00;;;;4935023;28;20210;-81
2022/10/02 09:51:26;;;;;;;4.85;1.15;;;;;22.60;101559.00;;;;4941627;29;20662;-81
2022/10/02 09:54:20;;;;;;;4.97;0.85;;;;;22.70;101564.00;;;;5012037;28;20200;-81
2022/10/02 09:57:18;;;;;;;2.47;0.90;;;;;22.80;101564.00;;;;5026803;28;20204;-79
2022/10/02 10:00:02;;;;;;;4.53;0.82;;;;;22.90;101564.00;;;;5003476;28;20239;-82
2022/10/02 10:03:15;;;;;;;6.32;1.50;;;;;23.00;101566.00;;;;5008917;28;20500;-80
2022/10/02 10:06:24;;;;;;;3.40;1.00;;;;;23.10;101565.00;;;;5005831;28;20574;-79
2022/10/02 10:09:17;;;;;;;3.53;0.70;;;;;23.20;101576.00;;;;5004919;28;20575;-79
2022/10/02 10:12:19;;;;;;;4.97;1.15;;;;;23.20;101582.00;;;;5012507;28;20303;-79
2022/10/02 10:15:26;;;;;;;3.30;1.00;;;;;23.20;101583.00;;;;4991454;28;20696;-78
2022/10/02 10:18:30;;;;;;;4.57;0.90;;;;;23.30;101580.00;;;;5015092;28;20638;-80
2022/10/02 10:21:27;;;;;;;3.83;0.80;;;;;23.40;101578.00;;;;5001379;28;20201;-77
2022/10/02 10:24:30;;;;;;;3.47;0.47;;;;;23.50;101579.00;;;;5003917;28;20212;-79
2022/10/02 10:27:16;;;;;;;3.30;0.52;;;;;23.70;101583.00;;;;4971208;28;20693;-80
2022/10/02 10:30:17;;;;;;;8.27;1.27;;;;;23.70;101595.00;;;;5008085;28;20578;-80
2022/10/02 10:33:14;;;;;;;4.30;1.13;;;;;23.70;101604.00;;;;5002216;28;20193;-80
2022/10/02 10:35:59;;;;;;;1.23;0.40;;;;;23.70;101599.00;;;;5004400;28;20312;-79
2022/10/02 10:38:57;;;;;;;2.72;0.77;;;;;23.60;101604.00;;;;5006075;28;20204;-81
2022/10/02 10:42:05;;;;;;;5.85;1.17;;;;;23.50;101605.00;;;;4970486;28;20312;-82
2022/10/02 10:45:07;;;;;;;5.05;0.82;;;;;23.50;101614.00;;;;5005341;28;20193;-81
2022/10/02 10:47:56;;;;;;;6.78;1.40;;;;;23.50;101617.00;;;;5004842;28;20204;-84
2022/10/02 10:50:38;;;;;;;3.55;0.60;;;;;23.60;101614.00;;;;5012003;28;20594;-81
2022/10/02 10:53:33;;;;;;;5.53;0.90;;;;;23.60;101616.00;;;;5010431;28;20566;-80
2022/10/02 10:56:35;;;;;;;6.53;1.00;;;;;23.60;101628.00;;;;5008146;28;20212;-80
2022/10/02 10:59:41;;;;;;;3.08;0.85;;;;;23.70;101638.00;;;;5009673;28;20204;-82
2022/10/02 11:02:47;;;;;;;3.80;0.98;;;;;23.70;101633.00;;;;5011009;28;20232;-80
2022/10/02 11:05:26;;;;;;;7.38;0.80;;;;;23.80;101642.00;;;;5008912;28;20203;-80
2022/10/02 11:08:13;;;;;;;2.72;0.80;;;;;23.80;101635.00;;;;5012603;28;20201;-80
2022/10/02 11:10:53;;;;;;;3.20;1.30;;;;;23.80;101642.00;;;;5006437;28;20304;-80
2022/10/02 11:13:36;;;;;;;5.60;0.88;;;;;23.80;101639.00;;;;5010934;28;20201;-80
2022/10/02 11:16:18;;;;;;;3.80;0.75;;;;;23.90;101642.00;;;;5010973;28;20200;-79
2022/10/02 11:19:07;;;;;;;3.85;0.60;;;;;23.90;101660.00;;;;5012804;28;20193;-80
2022/10/02 11:21:50;;;;;;;3.55;1.00;;;;;24.00;101657.00;;;;5008752;28;20228;-79
2022/10/02 11:24:59;;;;;;;4.80;0.90;;;;;23.90;101653.00;;;;4997585;28;20223;-79
2022/10/02 11:27:56;;;;;;;2.90;0.80;;;;;23.90;101665.00;;;;5008581;28;20231;-78
2022/10/02 11:30:32;;;;;;;5.38;0.93;;;;;24.00;101668.00;;;;5007374;28;20641;-78
2022/10/02 11:33:24;;;;;;;5.40;0.70;;;;;23.80;101673.00;;;;5006482;28;20254;-79
2022/10/02 11:36:09;;;;;;;4.65;0.90;;;;;23.80;101674.00;;;;5025022;28;20578;-79
2022/10/02 11:38:55;;;;;;;4.53;0.98;;;;;23.80;101673.00;;;;5028079;28;20220;-80
2022/10/02 11:41:46;;;;;;;7.55;1.23;;;;;23.90;101682.00;;;;5011445;28;20228;-79
2022/10/02 11:44:28;;;;;;;1.80;0.60;;;;;23.90;101678.00;;;;4994656;28;20765;-78
2022/10/02 11:47:28;;;;;;;6.20;1.17;;;;;23.90;101678.00;;;;5009777;28;20205;-78
2022/10/02 11:50:24;;;;;;;4.68;1.05;;;;;23.90;101682.00;;;;5011878;28;20213;-80
2022/10/02 11:53:42;;;;;;;2.67;0.85;;;;;23.90;101682.00;;;;5000779;28;20609;-79
2022/10/02 11:56:38;;;;;;;4.85;1.08;;;;;23.80;101676.00;;;;4947722;28;20207;-81
2022/10/02 11:59:27;;;;;;;3.15;0.75;;;;;23.80;101685.00;;;;4949550;28;20236;-81
2022/10/02 12:02:01;;;;;;;6.88;1.30;;;;;23.70;101685.00;;;;4999591;28;20698;-80
2022/10/02 12:04:46;;;;;;;4.13;1.10;;;;;23.60;101683.00;;;;5008208;28;20709;-80
2022/10/02 12:07:27;;;;;;;2.97;0.50;;;;;23.50;101686.00;;;;5010964;28;20667;-82
2022/10/02 12:10:06;;;;;;;5.03;1.35;;;;;23.50;101697.00;;;;5010793;28;20666;-80
2022/10/02 12:12:50;;;;;;;4.68;1.45;;;;;23.50;101695.00;;;;5006442;28;20209;-79
2022/10/02 12:15:30;;;;;;;2.88;0.80;;;;;23.40;101690.00;;;;5008173;28;20207;-81
2022/10/02 12:18:06;;;;;;;3.72;1.20;;;;;23.40;101704.00;;;;5002435;28;20293;-81
2022/10/02 12:27:02;;;;;;;3.38;0.90;;;;;23.30;101708.00;;;;5008686;28;20266;-81
2022/10/02 12:29:59;;;;;;;3.97;0.98;;;;;23.30;101712.00;;;;5007629;28;20193;-81
2022/10/02 12:32:55;;;;;;;4.07;0.63;;;;;23.30;101711.00;;;;4993096;28;20209;-80
2022/10/02 12:35:36;;;;;;;3.28;1.13;;;;;23.40;101710.00;;;;5008174;28;20212;-80
2022/10/02 12:38:16;;;;;;;4.13;0.93;;;;;23.50;101707.00;;;;5002961;28;20569;-80
2022/10/02 12:40:52;;;;;;;5.50;0.82;;;;;23.60;101706.00;;;;5010587;28;20204;-83
2022/10/02 12:44:04;;;;;;;5.10;0.70;;;;;23.60;101708.00;;;;5007763;28;20617;-82
2022/10/02 12:47:03;;;;;;;9.52;1.55;;;;;23.70;101714.00;;;;4927840;29;20582;-81
2022/10/02 12:49:41;;;;;;;3.55;0.80;;;;;23.80;101712.00;;;;5003908;28;20201;-81
2022/10/02 12:52:44;;;;;;;3.88;1.35;;;;;23.90;101722.00;;;;5002738;28;20259;-81
2022/10/02 12:55:44;;;;;;;3.60;0.93;;;;;23.90;101722.00;;;;4999323;28;20191;-81
2022/10/02 12:58:22;;;;;;;3.53;1.27;;;;;24.10;101724.00;;;;4989948;28;20212;-80
2022/10/02 13:01:10;;;;;;;3.88;0.93;;;;;24.00;101721.00;;;;5007854;28;20260;-81
2022/10/02 13:04:15;;;;;;;2.13;0.65;;;;;24.00;101725.00;;;;5008834;28;20596;-81
2022/10/02 13:07:30;;;;;;;2.55;0.68;;;;;24.00;101731.00;;;;5007884;28;20196;-81
2022/10/02 13:10:02;;;;;;;4.65;1.27;;;;;24.10;101727.00;;;;4957796;28;20210;-80
2022/10/02 13:12:50;;;;;;;4.72;0.85;;;;;24.10;101727.00;;;;5010252;28;20201;-80
2022/10/02 13:15:34;;;;;;;3.75;0.68;;;;;24.10;101724.00;;;;5005816;28;20216;-81
2022/10/02 13:18:12;;;;;;;3.55;0.68;;;;;24.30;101729.00;;;;5008329;28;20659;-81
2022/10/02 13:20:46;;;;;;;6.38;1.25;;;;;25.00;101722.00;;;;5010316;28;20204;-80
2022/10/02 13:23:28;;;;;;;6.18;1.58;;;;;25.80;101732.00;;;;5009919;28;20232;-80
2022/10/02 13:26:11;;;;;;;6.13;1.33;;;;;26.70;101734.00;;;;5009234;28;20208;-80
2022/10/02 13:28:57;;;;;;;3.65;0.88;;;;;27.60;101736.00;;;;4988948;28;20289;-81